BLUE21 LIPQ-LIRQ
Flight info
| Callsign | BLUE21 |
|---|---|
| Flight time | 0h 52m |
| Altitude | 19000 |
| Route | ROSKA M859 TULIK/N0415F230 M859 LUMAV Q58 BIKTU |
| Aircraft | B38M/M-SDE1FGHILORVWXY/HB1 |
Departure
| Time | 2026-05-04 20:22 |
|---|---|
| Airport | Trieste Airport (LIPQ) |
Arrival
| Time | 2026-05-04 21:14 |
|---|---|
| Airport | Florence Airport, Peretola (LIRQ) |
| Time | Latitude | Longitude | Altitude | Speed | Heading |
|---|---|---|---|---|---|
| 2026-05-04 19:59 | 45.82315 | 13.48393 | 48 ft | 0 kts | 350° |
| 2026-05-04 20:15 | 45.82319 | 13.48400 | 49 ft | 1 kts | 64° |
| 2026-05-04 20:16 | 45.82317 | 13.48407 | 49 ft | 2 kts | 111° |
| 2026-05-04 20:16 | 45.82292 | 13.48479 | 48 ft | 14 kts | 115° |
| 2026-05-04 20:16 | 45.82323 | 13.48571 | 48 ft | 10 kts | 7° |
| 2026-05-04 20:16 | 45.82407 | 13.48573 | 48 ft | 16 kts | 359° |
| 2026-05-04 20:17 | 45.82558 | 13.48571 | 48 ft | 27 kts | 360° |
| 2026-05-04 20:17 | 45.82685 | 13.48570 | 48 ft | 0 kts | 360° |
| 2026-05-04 20:21 | 45.82687 | 13.48570 | 48 ft | 2 kts | 360° |
| 2026-05-04 20:21 | 45.82786 | 13.48243 | 47 ft | 68 kts | 272° |
| 2026-05-04 20:22 | 45.82797 | 13.47190 | 51 ft | 141 kts | 270° |
| 2026-05-04 20:22 | 45.82794 | 13.45546 | 355 ft | 177 kts | 268° |
| 2026-05-04 20:22 | 45.82802 | 13.43905 | 1586 ft | 156 kts | 266° |
| 2026-05-04 20:22 | 45.82805 | 13.42312 | 2240 ft | 167 kts | 267° |
| 2026-05-04 20:23 | 45.82811 | 13.40563 | 2674 ft | 185 kts | 268° |
| 2026-05-04 20:23 | 45.82817 | 13.38623 | 3101 ft | 206 kts | 268° |
| 2026-05-04 20:23 | 45.82824 | 13.36477 | 3495 ft | 228 kts | 268° |
| 2026-05-04 20:23 | 45.82831 | 13.34089 | 3913 ft | 249 kts | 269° |
| 2026-05-04 20:24 | 45.82839 | 13.31676 | 5064 ft | 242 kts | 269° |
| 2026-05-04 20:24 | 45.83217 | 13.29262 | 5626 ft | 263 kts | 299° |
| 2026-05-04 20:24 | 45.84568 | 13.27472 | 6409 ft | 272 kts | 335° |
| 2026-05-04 20:24 | 45.86428 | 13.27049 | 7219 ft | 283 kts | 6° |
| 2026-05-04 20:25 | 45.88212 | 13.28130 | 8006 ft | 288 kts | 40° |
| 2026-05-04 20:25 | 45.89346 | 13.30297 | 8688 ft | 296 kts | 70° |
| 2026-05-04 20:25 | 45.89573 | 13.33174 | 9480 ft | 294 kts | 103° |
| 2026-05-04 20:25 | 45.88755 | 13.35841 | 10155 ft | 295 kts | 131° |
| 2026-05-04 20:26 | 45.87327 | 13.38024 | 10546 ft | 311 kts | 134° |
| 2026-05-04 20:26 | 45.86006 | 13.40616 | 10829 ft | 334 kts | 125° |
| 2026-05-04 20:26 | 45.84782 | 13.43542 | 11152 ft | 351 kts | 122° |
| 2026-05-04 20:26 | 45.83596 | 13.46671 | 11660 ft | 361 kts | 120° |
| 2026-05-04 20:27 | 45.82346 | 13.49783 | 12438 ft | 360 kts | 131° |
| 2026-05-04 20:27 | 45.80461 | 13.52055 | 13138 ft | 355 kts | 156° |
| 2026-05-04 20:27 | 45.78095 | 13.52938 | 13817 ft | 354 kts | 180° |
| 2026-05-04 20:27 | 45.75699 | 13.52315 | 14438 ft | 355 kts | 203° |
| 2026-05-04 20:28 | 45.73646 | 13.50379 | 15046 ft | 359 kts | 225° |
| 2026-05-04 20:28 | 45.72225 | 13.47503 | 15651 ft | 365 kts | 244° |
| 2026-05-04 20:28 | 45.71595 | 13.43974 | 16241 ft | 372 kts | 266° |
| 2026-05-04 20:28 | 45.71721 | 13.40258 | 16836 ft | 377 kts | 271° |
| 2026-05-04 20:29 | 45.71843 | 13.36471 | 17392 ft | 381 kts | 271° |
| 2026-05-04 20:29 | 45.71687 | 13.32736 | 17475 ft | 372 kts | 255° |
| 2026-05-04 20:29 | 45.70791 | 13.29380 | 17542 ft | 353 kts | 239° |
| 2026-05-04 20:29 | 45.69386 | 13.26615 | 17548 ft | 337 kts | 230° |
| 2026-05-04 20:30 | 45.67906 | 13.24102 | 17562 ft | 322 kts | 229° |
| 2026-05-04 20:30 | 45.66481 | 13.21723 | 17576 ft | 308 kts | 229° |
| 2026-05-04 20:30 | 45.65118 | 13.19475 | 17587 ft | 293 kts | 228° |
| 2026-05-04 20:30 | 45.63734 | 13.17452 | 17572 ft | 277 kts | 217° |
| 2026-05-04 20:31 | 45.62173 | 13.15911 | 17598 ft | 272 kts | 214° |
| 2026-05-04 20:31 | 45.60609 | 13.14379 | 17607 ft | 272 kts | 214° |
| 2026-05-04 20:31 | 45.59040 | 13.12848 | 17604 ft | 272 kts | 214° |
| 2026-05-04 20:31 | 45.57495 | 13.11345 | 17604 ft | 273 kts | 214° |
| 2026-05-04 20:32 | 45.55925 | 13.09819 | 17602 ft | 272 kts | 214° |
| 2026-05-04 20:32 | 45.54360 | 13.08301 | 17602 ft | 272 kts | 214° |
| 2026-05-04 20:32 | 45.52793 | 13.06782 | 17599 ft | 272 kts | 214° |
| 2026-05-04 20:32 | 45.51228 | 13.05266 | 17598 ft | 272 kts | 214° |
| 2026-05-04 20:33 | 45.49660 | 13.03748 | 17596 ft | 272 kts | 214° |
| 2026-05-04 20:33 | 45.48091 | 13.02231 | 17596 ft | 272 kts | 214° |
| 2026-05-04 20:33 | 45.46521 | 13.00714 | 17594 ft | 272 kts | 214° |
| 2026-05-04 20:33 | 45.44959 | 12.99204 | 17592 ft | 272 kts | 214° |
| 2026-05-04 20:34 | 45.43393 | 12.97693 | 17589 ft | 272 kts | 214° |
| 2026-05-04 20:34 | 45.41822 | 12.96178 | 17592 ft | 272 kts | 214° |
| 2026-05-04 20:34 | 45.40257 | 12.94669 | 17588 ft | 272 kts | 214° |
| 2026-05-04 20:34 | 45.38706 | 12.93175 | 17591 ft | 272 kts | 214° |
| 2026-05-04 20:35 | 45.37138 | 12.91665 | 17589 ft | 272 kts | 213° |
| 2026-05-04 20:35 | 45.35574 | 12.90161 | 17585 ft | 272 kts | 213° |
| 2026-05-04 20:35 | 45.34006 | 12.88653 | 17583 ft | 272 kts | 213° |
| 2026-05-04 20:35 | 45.32396 | 12.87102 | 17563 ft | 288 kts | 215° |
| 2026-05-04 20:36 | 45.30962 | 12.85031 | 17527 ft | 304 kts | 237° |
| 2026-05-04 20:36 | 45.29883 | 12.82406 | 17497 ft | 320 kts | 238° |
| 2026-05-04 20:36 | 45.28700 | 12.79623 | 17464 ft | 337 kts | 238° |
| 2026-05-04 20:36 | 45.27479 | 12.76707 | 17439 ft | 348 kts | 238° |
| 2026-05-04 20:37 | 45.26237 | 12.73729 | 17431 ft | 353 kts | 238° |
| 2026-05-04 20:37 | 45.24981 | 12.70715 | 17424 ft | 355 kts | 238° |
| 2026-05-04 20:37 | 45.23726 | 12.67706 | 17427 ft | 354 kts | 238° |
| 2026-05-04 20:37 | 45.22471 | 12.64699 | 17429 ft | 354 kts | 238° |
| 2026-05-04 20:38 | 45.21216 | 12.61696 | 17419 ft | 354 kts | 238° |
| 2026-05-04 20:38 | 45.19963 | 12.58699 | 17419 ft | 354 kts | 238° |
| 2026-05-04 20:38 | 45.18706 | 12.55695 | 17429 ft | 354 kts | 238° |
| 2026-05-04 20:38 | 45.17449 | 12.52698 | 17424 ft | 354 kts | 238° |
| 2026-05-04 20:39 | 45.16191 | 12.49698 | 17429 ft | 354 kts | 238° |
| 2026-05-04 20:39 | 45.14932 | 12.46702 | 17428 ft | 354 kts | 238° |
| 2026-05-04 20:39 | 45.13671 | 12.43703 | 17430 ft | 354 kts | 238° |
| 2026-05-04 20:39 | 45.12410 | 12.40707 | 17433 ft | 354 kts | 238° |
| 2026-05-04 20:40 | 45.11151 | 12.37718 | 17424 ft | 354 kts | 238° |
| 2026-05-04 20:40 | 45.09887 | 12.34721 | 17452 ft | 355 kts | 239° |
| 2026-05-04 20:40 | 45.08621 | 12.31720 | 17451 ft | 355 kts | 239° |
| 2026-05-04 20:40 | 45.07356 | 12.28716 | 17455 ft | 355 kts | 240° |
| 2026-05-04 20:41 | 45.06203 | 12.25684 | 17450 ft | 354 kts | 242° |
| 2026-05-04 20:41 | 45.05037 | 12.22614 | 17453 ft | 354 kts | 242° |
| 2026-05-04 20:41 | 45.03867 | 12.19549 | 17464 ft | 355 kts | 241° |
| 2026-05-04 20:41 | 45.02693 | 12.16482 | 17478 ft | 355 kts | 241° |
| 2026-05-04 20:42 | 45.01522 | 12.13430 | 17464 ft | 354 kts | 241° |
| 2026-05-04 20:42 | 45.00346 | 12.10371 | 17467 ft | 354 kts | 241° |
| 2026-05-04 20:42 | 44.99168 | 12.07308 | 17472 ft | 355 kts | 241° |
| 2026-05-04 20:42 | 44.97988 | 12.04245 | 17466 ft | 355 kts | 241° |
| 2026-05-04 20:43 | 44.96807 | 12.01184 | 17479 ft | 354 kts | 241° |
| 2026-05-04 20:43 | 44.95630 | 11.98132 | 17476 ft | 354 kts | 241° |
| 2026-05-04 20:43 | 44.94449 | 11.95077 | 17478 ft | 355 kts | 241° |
| 2026-05-04 20:43 | 44.93267 | 11.92021 | 17488 ft | 355 kts | 241° |
| 2026-05-04 20:44 | 44.92137 | 11.89101 | 17488 ft | 355 kts | 241° |
| 2026-05-04 20:44 | 44.91162 | 11.86587 | 17495 ft | 356 kts | 241° |
| 2026-05-04 20:44 | 44.89973 | 11.83522 | 17489 ft | 356 kts | 241° |
| 2026-05-04 20:44 | 44.88783 | 11.80458 | 17486 ft | 356 kts | 241° |
| 2026-05-04 20:45 | 44.87591 | 11.77392 | 17504 ft | 356 kts | 241° |
| 2026-05-04 20:45 | 44.86398 | 11.74328 | 17496 ft | 356 kts | 241° |
| 2026-05-04 20:45 | 44.85205 | 11.71266 | 17506 ft | 356 kts | 241° |
| 2026-05-04 20:45 | 44.84010 | 11.68203 | 17502 ft | 356 kts | 241° |
| 2026-05-04 20:46 | 44.82743 | 11.65208 | 17488 ft | 356 kts | 232° |
| 2026-05-04 20:46 | 44.80917 | 11.62878 | 17492 ft | 356 kts | 212° |
| 2026-05-04 20:46 | 44.78648 | 11.61605 | 17483 ft | 359 kts | 192° |
| 2026-05-04 20:46 | 44.76156 | 11.61225 | 17495 ft | 361 kts | 186° |
| 2026-05-04 20:47 | 44.73649 | 11.60936 | 17486 ft | 362 kts | 186° |
| 2026-05-04 20:47 | 44.71138 | 11.60669 | 17475 ft | 362 kts | 186° |
| 2026-05-04 20:47 | 44.68625 | 11.60416 | 17466 ft | 362 kts | 185° |
| 2026-05-04 20:47 | 44.66114 | 11.60170 | 17459 ft | 362 kts | 185° |
| 2026-05-04 20:48 | 44.63602 | 11.59928 | 17456 ft | 362 kts | 185° |
| 2026-05-04 20:48 | 44.61088 | 11.59687 | 17459 ft | 362 kts | 185° |
| 2026-05-04 20:48 | 44.58574 | 11.59447 | 17452 ft | 361 kts | 186° |
| 2026-05-04 20:48 | 44.56074 | 11.59208 | 17430 ft | 356 kts | 186° |
| 2026-05-04 20:49 | 44.53647 | 11.58977 | 17344 ft | 344 kts | 186° |
| 2026-05-04 20:49 | 44.51294 | 11.58753 | 17238 ft | 333 kts | 186° |
| 2026-05-04 20:49 | 44.49017 | 11.58536 | 17164 ft | 322 kts | 186° |
| 2026-05-04 20:49 | 44.46816 | 11.58326 | 17062 ft | 312 kts | 186° |
| 2026-05-04 20:50 | 44.44688 | 11.58124 | 16974 ft | 301 kts | 186° |
| 2026-05-04 20:50 | 44.42632 | 11.57929 | 16881 ft | 290 kts | 186° |
| 2026-05-04 20:50 | 44.40648 | 11.57740 | 16603 ft | 286 kts | 186° |
| 2026-05-04 20:50 | 44.38643 | 11.57548 | 16092 ft | 292 kts | 186° |
| 2026-05-04 20:51 | 44.36606 | 11.57356 | 15674 ft | 293 kts | 186° |
| 2026-05-04 20:51 | 44.34569 | 11.57163 | 15298 ft | 294 kts | 185° |
| 2026-05-04 20:51 | 44.32529 | 11.56970 | 14940 ft | 294 kts | 186° |
| 2026-05-04 20:51 | 44.30488 | 11.56778 | 14569 ft | 294 kts | 185° |
| 2026-05-04 20:52 | 44.28449 | 11.56584 | 14251 ft | 294 kts | 185° |
| 2026-05-04 20:52 | 44.26403 | 11.56391 | 13883 ft | 294 kts | 185° |
| 2026-05-04 20:52 | 44.24357 | 11.56197 | 13479 ft | 294 kts | 184° |
| 2026-05-04 20:52 | 44.22345 | 11.56006 | 13186 ft | 291 kts | 184° |
| 2026-05-04 20:53 | 44.20365 | 11.55818 | 13137 ft | 278 kts | 184° |
| 2026-05-04 20:53 | 44.18492 | 11.55641 | 13187 ft | 262 kts | 185° |
| 2026-05-04 20:53 | 44.16713 | 11.55472 | 13164 ft | 252 kts | 184° |
| 2026-05-04 20:53 | 44.14964 | 11.55307 | 13170 ft | 252 kts | 184° |
| 2026-05-04 20:54 | 44.13218 | 11.55142 | 13173 ft | 250 kts | 185° |
| 2026-05-04 20:54 | 44.11483 | 11.54978 | 13160 ft | 254 kts | 185° |
| 2026-05-04 20:54 | 44.09656 | 11.54806 | 13116 ft | 272 kts | 184° |
| 2026-05-04 20:54 | 44.07744 | 11.54625 | 13114 ft | 283 kts | 184° |
| 2026-05-04 20:55 | 44.05764 | 11.54438 | 13143 ft | 287 kts | 184° |
| 2026-05-04 20:55 | 44.03766 | 11.54251 | 13117 ft | 289 kts | 184° |
| 2026-05-04 20:55 | 44.01746 | 11.54060 | 13112 ft | 292 kts | 185° |
| 2026-05-04 20:55 | 43.99800 | 11.53499 | 13072 ft | 280 kts | 207° |
| 2026-05-04 20:56 | 43.98182 | 11.52127 | 13074 ft | 266 kts | 212° |
| 2026-05-04 20:56 | 43.96610 | 11.50794 | 13025 ft | 272 kts | 211° |
| 2026-05-04 20:56 | 43.94950 | 11.49384 | 12789 ft | 286 kts | 211° |
| 2026-05-04 20:56 | 43.93235 | 11.47921 | 12579 ft | 292 kts | 211° |
| 2026-05-04 20:57 | 43.91495 | 11.46434 | 12330 ft | 295 kts | 211° |
| 2026-05-04 20:57 | 43.89736 | 11.44932 | 12095 ft | 297 kts | 211° |
| 2026-05-04 20:57 | 43.87984 | 11.43433 | 11844 ft | 294 kts | 211° |
| 2026-05-04 20:57 | 43.86246 | 11.41948 | 11613 ft | 291 kts | 210° |
| 2026-05-04 20:58 | 43.84531 | 11.40484 | 11358 ft | 288 kts | 210° |
| 2026-05-04 20:58 | 43.82831 | 11.39034 | 11125 ft | 286 kts | 210° |
| 2026-05-04 20:58 | 43.81146 | 11.37598 | 10883 ft | 284 kts | 210° |
| 2026-05-04 20:58 | 43.79468 | 11.36170 | 10652 ft | 283 kts | 210° |
| 2026-05-04 20:59 | 43.77812 | 11.34760 | 10358 ft | 283 kts | 209° |
| 2026-05-04 20:59 | 43.76128 | 11.33322 | 10025 ft | 284 kts | 211° |
| 2026-05-04 20:59 | 43.74661 | 11.31471 | 9647 ft | 288 kts | 226° |
| 2026-05-04 20:59 | 43.73334 | 11.29390 | 9271 ft | 288 kts | 225° |
| 2026-05-04 21:00 | 43.71998 | 11.27318 | 8900 ft | 289 kts | 225° |
| 2026-05-04 21:00 | 43.70662 | 11.25247 | 8526 ft | 289 kts | 225° |
| 2026-05-04 21:00 | 43.69319 | 11.23171 | 8131 ft | 290 kts | 225° |
| 2026-05-04 21:00 | 43.67973 | 11.21092 | 7772 ft | 290 kts | 225° |
| 2026-05-04 21:01 | 43.66627 | 11.19016 | 7412 ft | 290 kts | 225° |
| 2026-05-04 21:01 | 43.65277 | 11.16935 | 7055 ft | 291 kts | 225° |
| 2026-05-04 21:01 | 43.63925 | 11.14860 | 6702 ft | 290 kts | 225° |
| 2026-05-04 21:01 | 43.62570 | 11.12789 | 6352 ft | 290 kts | 225° |
| 2026-05-04 21:02 | 43.61220 | 11.10730 | 5961 ft | 289 kts | 225° |
| 2026-05-04 21:02 | 43.59873 | 11.08673 | 5610 ft | 288 kts | 225° |
| 2026-05-04 21:02 | 43.58550 | 11.06651 | 5258 ft | 286 kts | 225° |
| 2026-05-04 21:02 | 43.57241 | 11.04634 | 4880 ft | 277 kts | 226° |
| 2026-05-04 21:03 | 43.55974 | 11.02688 | 4504 ft | 269 kts | 225° |
| 2026-05-04 21:03 | 43.54743 | 11.00797 | 4182 ft | 259 kts | 226° |
| 2026-05-04 21:03 | 43.53589 | 10.99026 | 4174 ft | 238 kts | 225° |
| 2026-05-04 21:03 | 43.52529 | 10.97401 | 4129 ft | 219 kts | 225° |
| 2026-05-04 21:04 | 43.51518 | 10.95853 | 4139 ft | 217 kts | 225° |
| 2026-05-04 21:04 | 43.50507 | 10.94303 | 4118 ft | 217 kts | 226° |
| 2026-05-04 21:04 | 43.49494 | 10.92749 | 4153 ft | 217 kts | 227° |
| 2026-05-04 21:04 | 43.48842 | 10.90900 | 4051 ft | 219 kts | 261° |
| 2026-05-04 21:05 | 43.49074 | 10.88829 | 4057 ft | 226 kts | 294° |
| 2026-05-04 21:05 | 43.50067 | 10.87126 | 4092 ft | 233 kts | 317° |
| 2026-05-04 21:05 | 43.51287 | 10.85634 | 4177 ft | 235 kts | 316° |
| 2026-05-04 21:05 | 43.52491 | 10.84139 | 4194 ft | 236 kts | 316° |
| 2026-05-04 21:06 | 43.53875 | 10.82950 | 4087 ft | 235 kts | 343° |
| 2026-05-04 21:06 | 43.55474 | 10.82806 | 4046 ft | 226 kts | 14° |
| 2026-05-04 21:06 | 43.56820 | 10.83696 | 4024 ft | 210 kts | 43° |
| 2026-05-04 21:06 | 43.57859 | 10.85092 | 4170 ft | 209 kts | 49° |
| 2026-05-04 21:07 | 43.58864 | 10.86548 | 4181 ft | 210 kts | 50° |
| 2026-05-04 21:07 | 43.59860 | 10.88021 | 4142 ft | 210 kts | 50° |
| 2026-05-04 21:07 | 43.60851 | 10.89503 | 4118 ft | 210 kts | 51° |
| 2026-05-04 21:07 | 43.61837 | 10.90994 | 4063 ft | 210 kts | 51° |
| 2026-05-04 21:08 | 43.62818 | 10.92484 | 4004 ft | 209 kts | 50° |
| 2026-05-04 21:08 | 43.63786 | 10.93955 | 3896 ft | 199 kts | 51° |
| 2026-05-04 21:08 | 43.64651 | 10.95275 | 3859 ft | 176 kts | 51° |
| 2026-05-04 21:08 | 43.65457 | 10.96514 | 3817 ft | 172 kts | 52° |
| 2026-05-04 21:09 | 43.65727 | 10.96929 | 3802 ft | 172 kts | 52° |
| 2026-05-04 21:09 | 43.65796 | 10.97035 | 3801 ft | 172 kts | 52° |
| 2026-05-04 21:09 | 43.66594 | 10.98266 | 3738 ft | 172 kts | 52° |
| 2026-05-04 21:10 | 43.67396 | 10.99503 | 3635 ft | 173 kts | 51° |
| 2026-05-04 21:10 | 43.68202 | 11.00744 | 3572 ft | 173 kts | 52° |
| 2026-05-04 21:10 | 43.68745 | 11.01581 | 3536 ft | 173 kts | 52° |
| 2026-05-04 21:10 | 43.69540 | 11.02806 | 3468 ft | 173 kts | 51° |
| 2026-05-04 21:11 | 43.70344 | 11.04047 | 3227 ft | 172 kts | 50° |
| 2026-05-04 21:11 | 43.71142 | 11.05275 | 2952 ft | 170 kts | 50° |
| 2026-05-04 21:11 | 43.71915 | 11.06468 | 2747 ft | 164 kts | 50° |
| 2026-05-04 21:11 | 43.72674 | 11.07639 | 2488 ft | 163 kts | 50° |
| 2026-05-04 21:12 | 43.73429 | 11.08806 | 2247 ft | 162 kts | 50° |
| 2026-05-04 21:12 | 43.74183 | 11.09965 | 2030 ft | 161 kts | 50° |
| 2026-05-04 21:12 | 43.74929 | 11.11116 | 1792 ft | 160 kts | 50° |
| 2026-05-04 21:12 | 43.75674 | 11.12269 | 1609 ft | 161 kts | 50° |
| 2026-05-04 21:13 | 43.76413 | 11.13431 | 1338 ft | 161 kts | 50° |
| 2026-05-04 21:13 | 43.77165 | 11.14568 | 1100 ft | 157 kts | 48° |
| 2026-05-04 21:13 | 43.77902 | 11.15690 | 946 ft | 157 kts | 49° |
| 2026-05-04 21:13 | 43.78616 | 11.16839 | 767 ft | 158 kts | 51° |
| 2026-05-04 21:14 | 43.79326 | 11.18001 | 504 ft | 159 kts | 49° |
| 2026-05-04 21:14 | 43.80090 | 11.19112 | 277 ft | 159 kts | 47° |
| 2026-05-04 21:14 | 43.80823 | 11.20237 | 138 ft | 151 kts | 48° |
| 2026-05-04 21:14 | 43.81274 | 11.20948 | 148 ft | 21 kts | 28° |
| 2026-05-04 21:15 | 43.81306 | 11.21003 | 148 ft | 4 kts | 124° |
| 2026-05-04 21:15 | 43.81273 | 11.20998 | 149 ft | 5 kts | 235° |
| 2026-05-04 21:15 | 43.81250 | 11.20916 | 147 ft | 13 kts | 246° |
| 2026-05-04 21:15 | 43.81168 | 11.20757 | 141 ft | 27 kts | 230° |
| 2026-05-04 21:16 | 43.81030 | 11.20541 | 136 ft | 32 kts | 227° |
| 2026-05-04 21:16 | 43.80878 | 11.20311 | 136 ft | 33 kts | 227° |
| 2026-05-04 21:16 | 43.80725 | 11.20080 | 136 ft | 32 kts | 227° |
| 2026-05-04 21:16 | 43.80594 | 11.19882 | 132 ft | 11 kts | 227° |
| 2026-05-04 21:17 | 43.80554 | 11.19813 | 126 ft | 14 kts | 249° |
| 2026-05-04 21:17 | 43.80614 | 11.19700 | 127 ft | 17 kts | 320° |
| 2026-05-04 21:17 | 43.80694 | 11.19607 | 129 ft | 8 kts | 332° |
| 2026-05-04 21:17 | 43.80733 | 11.19631 | 129 ft | 5 kts | 40° |
| 2026-05-04 21:18 | 43.80759 | 11.19644 | 132 ft | 3 kts | 356° |
| 2026-05-04 21:18 | 43.80778 | 11.19636 | 133 ft | 3 kts | 339° |
| 2026-05-04 21:18 | 43.80793 | 11.19627 | 133 ft | 0 kts | 332° |
| 2026-05-04 21:18 | 43.80793 | 11.19626 | 133 ft | 0 kts | 328° |
| 2026-05-04 21:19 | 43.80794 | 11.19625 | 133 ft | 1 kts | 328° |
| 2026-05-04 21:19 | 43.80796 | 11.19623 | 133 ft | 0 kts | 328° |